»·PEaware :: N461D KSBA-KSBD

N461D :: KSBA-KSBD

FLIGHT INFORMATION

Flight Status: Arrived
Operator: Privately registered:
United States
More flights under this callsign
Pilot: Daniel R. (17770)
Aircraft: CESSNA 172 SKYHAWK
(C172)
More flights by this aircraft type
Origin: KSBA Santa Barbara Mun
United States
Destination: KSBD San Bernardino Intl
United States
More flights between these airports :: More routes between these airports
Route: KWANG CMA VNY V186 PDZ
File this flight plan on PilotEdge
Remarks: TEC route SBAN16
Altitude:
(Current/Filed)
5,000ft
Speed:
(Current/Filed)
110kts
Departed: 08-Jan-18 06:53 PM
Arrived: 08-Jan-18 08:39 PM
Distance/Time
Traveled:
131nm/1:45
Distance/Time
To Go:
Arrived

Flight Plot

Page will automatically refresh every two minutes.


Map Options




Map Legend


Flown Route
Filed Route
Departure Airport
Arrival Airport
Navaid (VOR, NDB)
Fix

Horizontal Profiles

Position Reports

Time Latitude Longitude Heading Altitude Ground
Speed
08-Jan-18 18:47 34.432569 -119.835085 71 17ft 0kts
08-Jan-18 18:48 34.432569 -119.835085 71 17ft 0kts
08-Jan-18 18:49 34.432569 -119.835085 71 17ft 0kts
08-Jan-18 18:50 34.432569 -119.835085 71 17ft 0kts
08-Jan-18 18:51 34.432569 -119.835085 71 17ft 0kts
08-Jan-18 18:52 34.432569 -119.835085 71 17ft 0kts
08-Jan-18 18:53 34.432569 -119.835085 71 17ft 0kts
08-Jan-18 18:54 34.432569 -119.835085 71 17ft 0kts
08-Jan-18 18:55 34.432578 -119.835059 65 17ft 2kts
08-Jan-18 18:56 34.431647 -119.836656 253 17ft 17kts
08-Jan-18 18:57 34.430263 -119.840945 248 17ft 0kts
08-Jan-18 18:58 34.430263 -119.840945 248 17ft 0kts
08-Jan-18 18:59 34.425117 -119.839989 165 53ft 71kts
08-Jan-18 19:00 34.402828 -119.834991 163 745ft 88kts
08-Jan-18 19:01 34.378345 -119.829079 163 1443ft 91kts
08-Jan-18 19:02 34.353675 -119.823124 163 2139ft 89kts
08-Jan-18 19:03 34.329720 -119.817508 163 2831ft 86kts
08-Jan-18 19:04 34.303993 -119.810275 139 2998ft 96kts
08-Jan-18 19:05 34.302332 -119.779703 97 3105ft 85kts
08-Jan-18 19:06 34.300950 -119.752818 98 3789ft 76kts
08-Jan-18 19:07 34.299595 -119.727431 98 4369ft 81kts
08-Jan-18 19:08 34.297915 -119.698106 98 4864ft 91kts
08-Jan-18 19:09 34.295915 -119.664912 98 5005ft 104kts
08-Jan-18 19:10 34.293830 -119.629834 97 5007ft 103kts
08-Jan-18 19:11 34.291823 -119.595203 97 5010ft 102kts
08-Jan-18 19:12 34.289844 -119.560830 96 5013ft 102kts
08-Jan-18 19:13 34.287863 -119.526468 96 5016ft 102kts
08-Jan-18 19:14 34.285889 -119.492326 96 5018ft 102kts
08-Jan-18 19:15 34.283902 -119.458136 95 5019ft 102kts
08-Jan-18 19:16 34.281902 -119.423886 95 5020ft 101kts
08-Jan-18 19:17 34.279901 -119.389786 95 5021ft 101kts
08-Jan-18 19:18 34.277888 -119.355641 95 5022ft 101kts
08-Jan-18 19:19 34.275886 -119.321851 95 5026ft 102kts
08-Jan-18 19:20 34.273842 -119.287625 95 5027ft 102kts
08-Jan-18 19:21 34.271793 -119.253286 95 5028ft 102kts
08-Jan-18 19:22 34.269731 -119.218984 95 5027ft 102kts
08-Jan-18 19:23 34.267678 -119.184962 94 5027ft 101kts
08-Jan-18 19:24 34.265684 -119.151876 94 5027ft 100kts
08-Jan-18 19:25 34.263646 -119.118304 94 5027ft 100kts
08-Jan-18 19:26 34.261602 -119.084811 94 5027ft 99kts
08-Jan-18 19:27 34.259895 -119.057080 94 5027ft 97kts
08-Jan-18 19:28 34.257550 -119.019059 94 5027ft 98kts
08-Jan-18 19:29 34.255863 -118.991739 94 5027ft 98kts
08-Jan-18 19:30 34.253470 -118.953294 94 5026ft 98kts
08-Jan-18 19:31 34.251756 -118.925938 94 5026ft 98kts
08-Jan-18 19:32 34.249485 -118.889742 94 5017ft 100kts
08-Jan-18 19:33 34.247721 -118.861730 94 5017ft 100kts
08-Jan-18 19:34 34.245231 -118.822380 95 5017ft 100kts
08-Jan-18 19:35 34.243452 -118.794399 95 5017ft 100kts
08-Jan-18 19:36 34.241287 -118.760725 96 5023ft 100kts
08-Jan-18 19:37 34.239114 -118.726786 96 4994ft 103kts
08-Jan-18 19:38 34.236907 -118.692520 97 4999ft 102kts
08-Jan-18 19:39 34.234692 -118.658332 97 5005ft 102kts
08-Jan-18 19:40 34.232470 -118.624110 98 5012ft 103kts
08-Jan-18 19:41 34.230206 -118.589445 98 5018ft 104kts
08-Jan-18 19:42 34.227901 -118.554375 99 5023ft 105kts
08-Jan-18 19:43 34.225554 -118.518783 99 5019ft 106kts
08-Jan-18 19:44 34.221211 -118.483748 113 5015ft 104kts
08-Jan-18 19:45 34.211384 -118.450872 114 5011ft 104kts
08-Jan-18 19:46 34.201457 -118.417973 114 5007ft 105kts
08-Jan-18 19:47 34.191398 -118.384771 115 5004ft 105kts
08-Jan-18 19:48 34.181250 -118.351345 116 5001ft 106kts
08-Jan-18 19:49 34.171132 -118.318076 117 4998ft 107kts
08-Jan-18 19:50 34.160857 -118.284352 116 5002ft 106kts
08-Jan-18 19:51 34.150731 -118.251124 115 5006ft 104kts
08-Jan-18 19:52 34.140764 -118.218436 113 5010ft 103kts
08-Jan-18 19:53 34.130909 -118.186141 112 5014ft 102kts
08-Jan-18 19:54 34.121190 -118.154329 111 5017ft 101kts
08-Jan-18 19:55 34.111487 -118.122615 109 5021ft 101kts
08-Jan-18 19:56 34.101751 -118.090825 108 4995ft 103kts
08-Jan-18 19:57 34.091860 -118.058573 107 4992ft 102kts
08-Jan-18 19:58 34.082045 -118.026584 108 4996ft 101kts
08-Jan-18 19:59 34.072282 -117.994809 108 4998ft 101kts
08-Jan-18 20:00 34.062560 -117.963183 108 4999ft 100kts
08-Jan-18 20:01 34.052862 -117.931684 109 5000ft 100kts
08-Jan-18 20:02 34.043206 -117.900362 109 5001ft 99kts
08-Jan-18 20:03 34.033538 -117.869032 109 5001ft 99kts
08-Jan-18 20:04 34.023920 -117.837906 109 5000ft 99kts
08-Jan-18 20:05 34.014220 -117.806773 109 5001ft 99kts
08-Jan-18 20:06 34.004524 -117.775820 109 5001ft 100kts
08-Jan-18 20:09 34.432569 -119.835085 71 17ft 0kts
08-Jan-18 20:10 34.432569 -119.835085 71 17ft 0kts
08-Jan-18 20:11 34.432569 -119.835085 71 17ft 0kts
08-Jan-18 20:12 34.432569 -119.835085 71 17ft 0kts
08-Jan-18 20:13 34.432569 -119.835085 71 17ft 0kts
08-Jan-18 20:14 34.432569 -119.835085 71 17ft 0kts
08-Jan-18 20:15 34.086053 -118.033304 25 299ft 0kts
08-Jan-18 20:16 34.086053 -118.033304 25 299ft 0kts
08-Jan-18 20:17 34.086053 -118.033304 25 299ft 0kts
08-Jan-18 20:18 34.085770 -118.032397 111 5044ft 100kts
08-Jan-18 20:25 33.999641 -117.765452 102 5056ft 105kts
08-Jan-18 20:26 33.998954 -117.761901 104 5055ft 105kts
08-Jan-18 20:27 33.988348 -117.728285 110 4968ft 110kts
08-Jan-18 20:28 33.976670 -117.694820 111 4959ft 108kts
08-Jan-18 20:29 33.964566 -117.660265 110 4651ft 114kts
08-Jan-18 20:30 33.952275 -117.625456 110 4399ft 108kts
08-Jan-18 20:31 33.940740 -117.592850 110 4242ft 106kts
08-Jan-18 20:32 33.929037 -117.559724 110 4138ft 112kts
08-Jan-18 20:33 33.928752 -117.526040 48 4029ft 114kts
08-Jan-18 20:34 33.956876 -117.507522 25 3976ft 115kts
08-Jan-18 20:35 33.986661 -117.494815 23 3977ft 112kts
08-Jan-18 20:36 34.015576 -117.483011 23 3980ft 109kts
08-Jan-18 20:37 34.030607 -117.453136 70 3584ft 105kts
08-Jan-18 20:38 34.040455 -117.420323 69 3287ft 100kts
08-Jan-18 20:39 34.049823 -117.388975 70 3292ft 100kts
08-Jan-18 20:40 34.059322 -117.356833 70 2978ft 101kts
08-Jan-18 20:41 34.066697 -117.331531 69 2563ft 65kts
08-Jan-18 20:42 34.073450 -117.308857 69 2185ft 74kts
08-Jan-18 20:43 34.080377 -117.285458 69 1789ft 74kts
08-Jan-18 20:44 34.087332 -117.261968 69 1396ft 73kts
08-Jan-18 20:45 34.092801 -117.243543 66 1161ft 16kts
08-Jan-18 20:46 34.094269 -117.242042 0 1161ft 0kts
08-Jan-18 20:47 34.095747 -117.241918 178 1161ft 3kts
08-Jan-18 20:48 34.097468 -117.233732 69 1161ft 31kts
08-Jan-18 20:49 34.100876 -117.224551 68 1161ft 26kts
08-Jan-18 20:50 34.101568 -117.223826 273 1161ft 0kts

Navigation Log

Ident Type
1. KSBA Airport
2. KWANG Fix
3. CMA Navaid
4. VNY Navaid
5. DARTS Fix
6. PURMS Fix
7. ELMOO Fix
8. ITSME Fix
9. PIRRO Fix
10. ADAMM Fix
11. BAYJY Fix
12. TIFNI Fix
13. PDZ Navaid
14. KSBD Airport